La Grange Park, Illinois
Current Conditions -  °F | °C
As of 3:53 PM on Monday 24 Nov 2014 (Local Time) from KMDW Reporting Station
Light Snow Light Snow  
Wind Chill: -7°   Ceiling: 1700
Heat Index:   Visibility: 10mi
Dew Point: -3°   Wind: 25mph
Humidity: 79%   Direction: 250°WSW
Pressure: 29.56"   Gusts: 41mph
Location:  41.82°N, 87.87°W
Report Text: KMDW 242153Z 25022G36KT 10SM -SN BKN017 OVC023 00/M03 A2956 RMK AO2 PK WND 25036/2145 SLP016 P0000 T00001033
Loading
Personal Weather Stations






























Interactive Weather Map New forecast layout! Learn more

10-Day Weather Forecast

Advertisements
Track Severe Weather on mobile